sensor_id;sensor_type;location;lat;lon;timestamp;P1;durP1;ratioP1;P2;durP2;ratioP2
39308;SDS011;26019;47.510;19.122;2023-02-02T02:27:49;0.85;;;0.40;;
39308;SDS011;26019;47.510;19.122;2023-02-02T02:48:29;1.20;;;0.40;;
39308;SDS011;26019;47.510;19.122;2023-02-02T03:18:54;1.23;;;0.77;;
39308;SDS011;26019;47.510;19.122;2023-02-02T03:28:58;0.97;;;0.97;;
39308;SDS011;26019;47.510;19.122;2023-02-02T03:39:07;1.08;;;0.98;;
39308;SDS011;26019;47.510;19.122;2023-02-02T03:49:09;2.90;;;1.40;;
39308;SDS011;26019;47.510;19.122;2023-02-02T03:59:12;1.63;;;1.17;;
39308;SDS011;26019;47.510;19.122;2023-02-02T04:09:22;4.05;;;1.10;;
39308;SDS011;26019;47.510;19.122;2023-02-02T04:19:24;1.15;;;0.98;;
39308;SDS011;26019;47.510;19.122;2023-02-02T04:29:26;1.77;;;1.13;;
39308;SDS011;26019;47.510;19.122;2023-02-02T04:39:27;5.00;;;1.30;;
39308;SDS011;26019;47.510;19.122;2023-02-02T04:49:31;3.60;;;1.30;;
39308;SDS011;26019;47.510;19.122;2023-02-02T04:59:33;3.83;;;1.00;;
39308;SDS011;26019;47.510;19.122;2023-02-02T05:09:37;2.28;;;0.90;;
39308;SDS011;26019;47.510;19.122;2023-02-02T05:19:40;2.78;;;1.10;;
39308;SDS011;26019;47.510;19.122;2023-02-02T05:29:45;3.80;;;1.30;;
39308;SDS011;26019;47.510;19.122;2023-02-02T05:39:55;5.30;;;1.23;;
39308;SDS011;26019;47.510;19.122;2023-02-02T05:49:58;3.22;;;1.10;;
39308;SDS011;26019;47.510;19.122;2023-02-02T06:00:02;5.20;;;1.55;;
39308;SDS011;26019;47.510;19.122;2023-02-02T06:10:05;2.58;;;1.48;;
39308;SDS011;26019;47.510;19.122;2023-02-02T06:20:08;2.28;;;1.45;;
39308;SDS011;26019;47.510;19.122;2023-02-02T06:30:10;1.65;;;1.23;;
39308;SDS011;26019;47.510;19.122;2023-02-02T06:40:14;1.40;;;1.03;;
39308;SDS011;26019;47.510;19.122;2023-02-02T06:50:19;3.17;;;1.52;;
39308;SDS011;26019;47.510;19.122;2023-02-02T07:00:21;5.97;;;1.47;;
39308;SDS011;26019;47.510;19.122;2023-02-02T07:10:24;4.70;;;1.48;;
39308;SDS011;26019;47.510;19.122;2023-02-02T07:20:47;3.22;;;1.15;;
39308;SDS011;26019;47.510;19.122;2023-02-02T07:30:51;3.03;;;1.05;;
39308;SDS011;26019;47.510;19.122;2023-02-02T07:51:00;1.83;;;1.02;;
39308;SDS011;26019;47.510;19.122;2023-02-02T08:01:07;3.40;;;1.00;;
39308;SDS011;26019;47.510;19.122;2023-02-02T08:11:12;4.95;;;1.58;;
39308;SDS011;26019;47.510;19.122;2023-02-02T08:21:17;2.50;;;1.15;;
39308;SDS011;26019;47.510;19.122;2023-02-02T08:31:38;3.58;;;0.90;;
39308;SDS011;26019;47.510;19.122;2023-02-02T08:41:42;3.28;;;1.00;;
39308;SDS011;26019;47.510;19.122;2023-02-02T08:51:45;4.67;;;1.23;;
39308;SDS011;26019;47.510;19.122;2023-02-02T09:01:48;3.45;;;1.33;;
39308;SDS011;26019;47.510;19.122;2023-02-02T09:11:50;1.80;;;0.90;;
39308;SDS011;26019;47.510;19.122;2023-02-02T09:21:53;3.42;;;1.08;;
39308;SDS011;26019;47.510;19.122;2023-02-02T09:31:56;5.47;;;0.70;;
39308;SDS011;26019;47.510;19.122;2023-02-02T09:52:40;4.15;;;1.13;;
39308;SDS011;26019;47.510;19.122;2023-02-02T10:02:43;10.02;;;0.90;;
39308;SDS011;26019;47.510;19.122;2023-02-02T10:13:10;4.35;;;1.10;;
39308;SDS011;26019;47.510;19.122;2023-02-02T10:33:36;1.17;;;0.77;;
39308;SDS011;26019;47.510;19.122;2023-02-02T10:54:04;6.47;;;0.95;;
39308;SDS011;26019;47.510;19.122;2023-02-02T11:04:20;5.57;;;1.20;;
39308;SDS011;26019;47.510;19.122;2023-02-02T11:14:52;5.20;;;0.85;;
39308;SDS011;26019;47.510;19.122;2023-02-02T11:25:04;6.03;;;0.80;;
39308;SDS011;26019;47.510;19.122;2023-02-02T11:35:26;3.05;;;0.90;;
39308;SDS011;26019;47.510;19.122;2023-02-02T11:45:33;3.63;;;1.20;;
39308;SDS011;26019;47.510;19.122;2023-02-02T11:55:37;1.95;;;0.80;;
39308;SDS011;26019;47.510;19.122;2023-02-02T12:05:39;5.90;;;1.27;;
39308;SDS011;26019;47.510;19.122;2023-02-02T12:15:51;4.22;;;0.80;;
39308;SDS011;26019;47.510;19.122;2023-02-02T12:47:03;3.22;;;1.20;;
39308;SDS011;26019;47.510;19.122;2023-02-02T12:57:22;3.37;;;1.10;;
39308;SDS011;26019;47.510;19.122;2023-02-02T13:07:48;1.73;;;1.10;;
39308;SDS011;26019;47.510;19.122;2023-02-02T13:18:01;2.78;;;1.25;;
39308;SDS011;26019;47.510;19.122;2023-02-02T13:28:10;1.25;;;0.90;;
39308;SDS011;26019;47.510;19.122;2023-02-02T13:38:21;4.60;;;1.73;;
39308;SDS011;26019;47.510;19.122;2023-02-02T13:48:48;4.28;;;1.25;;
39308;SDS011;26019;47.510;19.122;2023-02-02T14:09:39;6.25;;;1.33;;
39308;SDS011;26019;47.510;19.122;2023-02-02T14:19:46;7.60;;;1.42;;
39308;SDS011;26019;47.510;19.122;2023-02-02T14:50:10;6.20;;;1.60;;
39308;SDS011;26019;47.510;19.122;2023-02-02T15:00:22;5.30;;;1.40;;
39308;SDS011;26019;47.510;19.122;2023-02-02T15:21:25;2.25;;;1.00;;
39308;SDS011;26019;47.510;19.122;2023-02-02T15:41:33;5.47;;;1.17;;
39308;SDS011;26019;47.510;19.122;2023-02-02T15:51:38;2.28;;;1.50;;
39308;SDS011;26019;47.510;19.122;2023-02-02T16:01:44;6.35;;;1.58;;
39308;SDS011;26019;47.510;19.122;2023-02-02T16:11:51;4.40;;;1.25;;
39308;SDS011;26019;47.510;19.122;2023-02-02T16:31:59;4.38;;;1.33;;
39308;SDS011;26019;47.510;19.122;2023-02-02T16:42:21;8.80;;;1.67;;
39308;SDS011;26019;47.510;19.122;2023-02-02T16:52:28;5.32;;;2.30;;
39308;SDS011;26019;47.510;19.122;2023-02-02T17:02:30;2.88;;;1.60;;
39308;SDS011;26019;47.510;19.122;2023-02-02T17:12:36;5.03;;;1.90;;
39308;SDS011;26019;47.510;19.122;2023-02-02T17:22:38;4.90;;;1.40;;
39308;SDS011;26019;47.510;19.122;2023-02-02T17:32:46;3.78;;;1.73;;
39308;SDS011;26019;47.510;19.122;2023-02-02T17:42:50;4.77;;;2.07;;
39308;SDS011;26019;47.510;19.122;2023-02-02T17:52:53;9.23;;;1.63;;
39308;SDS011;26019;47.510;19.122;2023-02-02T18:02:56;5.00;;;2.17;;
39308;SDS011;26019;47.510;19.122;2023-02-02T18:13:16;5.50;;;2.10;;
39308;SDS011;26019;47.510;19.122;2023-02-02T18:23:21;8.40;;;2.85;;
39308;SDS011;26019;47.510;19.122;2023-02-02T18:33:25;4.87;;;2.77;;
39308;SDS011;26019;47.510;19.122;2023-02-02T18:43:27;6.53;;;2.65;;
39308;SDS011;26019;47.510;19.122;2023-02-02T18:53:39;6.32;;;2.30;;
39308;SDS011;26019;47.510;19.122;2023-02-02T19:03:47;2.42;;;1.80;;
39308;SDS011;26019;47.510;19.122;2023-02-02T19:13:52;2.95;;;2.05;;
39308;SDS011;26019;47.510;19.122;2023-02-02T19:23:55;6.35;;;2.22;;
39308;SDS011;26019;47.510;19.122;2023-02-02T19:33:57;5.43;;;2.13;;
39308;SDS011;26019;47.510;19.122;2023-02-02T19:44:00;6.32;;;2.60;;
39308;SDS011;26019;47.510;19.122;2023-02-02T20:04:49;8.02;;;3.28;;
39308;SDS011;26019;47.510;19.122;2023-02-02T20:15:00;7.57;;;4.07;;
39308;SDS011;26019;47.510;19.122;2023-02-02T20:25:20;5.43;;;2.97;;
39308;SDS011;26019;47.510;19.122;2023-02-02T20:35:23;8.93;;;3.70;;
39308;SDS011;26019;47.510;19.122;2023-02-02T20:45:36;10.95;;;4.13;;
39308;SDS011;26019;47.510;19.122;2023-02-02T20:55:41;4.60;;;3.08;;
39308;SDS011;26019;47.510;19.122;2023-02-02T21:05:45;7.20;;;3.33;;
39308;SDS011;26019;47.510;19.122;2023-02-02T21:15:51;6.65;;;3.20;;
39308;SDS011;26019;47.510;19.122;2023-02-02T21:26:00;9.60;;;3.40;;
39308;SDS011;26019;47.510;19.122;2023-02-02T21:36:10;10.45;;;3.65;;
39308;SDS011;26019;47.510;19.122;2023-02-02T21:46:33;8.15;;;3.70;;
39308;SDS011;26019;47.510;19.122;2023-02-02T21:56:38;10.10;;;3.45;;
39308;SDS011;26019;47.510;19.122;2023-02-02T22:06:42;8.47;;;3.80;;
39308;SDS011;26019;47.510;19.122;2023-02-02T22:16:50;8.90;;;3.58;;
39308;SDS011;26019;47.510;19.122;2023-02-02T22:26:56;6.78;;;3.70;;
39308;SDS011;26019;47.510;19.122;2023-02-02T22:36:59;8.07;;;3.70;;
39308;SDS011;26019;47.510;19.122;2023-02-02T22:47:01;14.02;;;5.05;;
39308;SDS011;26019;47.510;19.122;2023-02-02T22:57:04;7.47;;;3.70;;
39308;SDS011;26019;47.510;19.122;2023-02-02T23:07:06;7.32;;;3.25;;
39308;SDS011;26019;47.510;19.122;2023-02-02T23:17:10;6.13;;;3.03;;
39308;SDS011;26019;47.510;19.122;2023-02-02T23:27:13;5.95;;;3.13;;
39308;SDS011;26019;47.510;19.122;2023-02-02T23:37:14;7.38;;;3.17;;
39308;SDS011;26019;47.510;19.122;2023-02-02T23:47:16;8.45;;;3.10;;
39308;SDS011;26019;47.510;19.122;2023-02-02T23:57:19;8.95;;;2.90;;
